Time;durP1;ratioP1;P1;durP2;ratioP2;P2;SDS_P1;SDS_P2;PMS_P1;PMS_P2;Temp;Humidity;BMP_temperature;BMP_pressure;BME280_temperature;BME280_humidity;BME280_pressure;Samples;Min_cycle;Max_cycle;Signal;HPM_P1;HPM_P2
2022/11/24 00:01:48;;;;;;;64.18;55.28;;;;;;;3.82;100.00;95675.56;5089867;28;20089;-61
2022/11/24 00:04:13;;;;;;;58.88;52.60;;;;;;;3.75;100.00;95682.94;5084358;28;20544;-61
2022/11/24 00:06:39;;;;;;;63.03;54.70;;;;;;;3.67;100.00;95680.88;5088081;28;20027;-61
2022/11/24 00:09:05;;;;;;;57.63;51.53;;;;;;;3.65;100.00;95692.31;5091039;28;20028;-61
2022/11/24 00:11:32;;;;;;;61.90;55.17;;;;;;;3.61;100.00;95686.44;5095464;28;20413;-61
2022/11/24 00:13:59;;;;;;;62.35;55.70;;;;;;;3.56;100.00;95678.94;5078149;28;20096;-61
2022/11/24 00:16:27;;;;;;;67.53;58.15;;;;;;;3.52;100.00;95684.44;5081697;28;20402;-68
2022/11/24 00:18:54;;;;;;;62.80;55.83;;;;;;;3.42;100.00;95679.00;5086173;28;20116;-61
2022/11/24 00:21:20;;;;;;;66.30;59.10;;;;;;;3.37;100.00;95686.28;5081805;28;20087;-61
2022/11/24 00:23:46;;;;;;;59.58;52.90;;;;;;;3.33;100.00;95688.22;5081311;28;20027;-61
2022/11/24 00:26:14;;;;;;;60.05;53.83;;;;;;;3.26;100.00;95689.56;5086378;28;20016;-61
2022/11/24 00:28:41;;;;;;;61.97;55.30;;;;;;;3.46;100.00;95683.06;5083595;28;20055;-60
2022/11/24 00:31:21;;;;;;;60.22;53.78;;;;;;;3.30;100.00;95688.41;5087677;28;20028;-61
2022/11/24 00:33:48;;;;;;;59.42;53.20;;;;;;;3.22;100.00;95699.31;5084442;28;20097;-61
2022/11/24 00:36:14;;;;;;;56.25;50.00;;;;;;;3.40;100.00;95699.91;5081273;28;20082;-66
2022/11/24 00:38:40;;;;;;;64.40;55.95;;;;;;;3.20;100.00;95703.78;5080158;28;20027;-61
2022/11/24 00:41:06;;;;;;;105.50;75.55;;;;;;;3.12;100.00;95709.47;5079397;28;20025;-61
2022/11/24 00:43:31;;;;;;;120.68;87.22;;;;;;;3.07;100.00;95708.91;5079576;28;20109;-60
2022/11/24 00:45:57;;;;;;;153.20;109.50;;;;;;;3.10;100.00;95708.72;5074375;28;20036;-61
2022/11/24 00:48:22;;;;;;;155.18;109.05;;;;;;;3.06;100.00;95709.00;5088718;28;20028;-61
2022/11/24 00:51:01;;;;;;;133.20;94.25;;;;;;;3.07;100.00;95713.25;5082291;28;20401;-61
2022/11/24 00:53:27;;;;;;;92.57;66.20;;;;;;;3.05;100.00;95713.38;5080259;28;20035;-61
2022/11/24 00:55:53;;;;;;;100.28;73.82;;;;;;;3.03;100.00;95715.25;5074206;28;20028;-59
2022/11/24 00:58:18;;;;;;;96.80;74.47;;;;;;;3.01;100.00;95707.53;5076774;28;20386;-67
2022/11/24 01:00:44;;;;;;;87.80;64.18;;;;;;;2.97;100.00;95708.66;5100541;28;20020;-67
2022/11/24 01:03:11;;;;;;;90.72;66.60;;;;;;;2.96;100.00;95711.31;5096150;28;20097;-67
2022/11/24 01:05:37;;;;;;;80.65;62.65;;;;;;;2.95;100.00;95707.06;5090098;28;20056;-68
2022/11/24 01:08:03;;;;;;;73.63;57.45;;;;;;;2.92;100.00;95704.66;5091400;28;20408;-67
2022/11/24 01:10:29;;;;;;;70.93;53.78;;;;;;;2.90;100.00;95706.50;5091225;28;20073;-67
2022/11/24 01:12:54;;;;;;;71.07;52.95;;;;;;;2.89;100.00;95704.84;5090755;28;20068;-59
2022/11/24 01:15:20;;;;;;;63.55;51.67;;;;;;;2.88;100.00;95704.03;5091372;28;20054;-59
2022/11/24 01:17:45;;;;;;;54.03;46.38;;;;;;;2.90;100.00;95701.31;5089769;28;20031;-66
2022/11/24 01:20:11;;;;;;;62.60;47.38;;;;;;;2.88;100.00;95698.81;5072781;28;20034;-67
2022/11/24 01:22:37;;;;;;;52.58;41.95;;;;;;;2.82;100.00;95705.22;5074883;28;20397;-67
2022/11/24 01:25:05;;;;;;;46.08;35.33;;;;;;;2.77;100.00;95707.28;5089578;28;20435;-66
2022/11/24 01:27:30;;;;;;;37.60;31.40;;;;;;;2.73;100.00;95710.97;5078227;28;20813;-66
2022/11/24 01:29:56;;;;;;;46.25;36.78;;;;;;;2.69;100.00;95707.75;5082434;28;20112;-67
2022/11/24 01:32:21;;;;;;;45.70;32.92;;;;;;;2.68;100.00;95713.88;5076894;28;20096;-61
2022/11/24 01:34:49;;;;;;;41.33;32.60;;;;;;;2.63;100.00;95710.69;5090897;28;20032;-66
2022/11/24 01:37:15;;;;;;;41.13;32.70;;;;;;;2.60;100.00;95715.25;5090915;28;20031;-69
2022/11/24 01:39:40;;;;;;;37.28;27.42;;;;;;;2.54;100.00;95716.44;5090827;28;20026;-69
2022/11/24 01:42:06;;;;;;;27.35;22.75;;;;;;;2.51;100.00;95716.66;5090910;28;20012;-69
2022/11/24 01:44:31;;;;;;;28.83;19.33;;;;;;;2.48;100.00;95717.66;5090543;28;20054;-69
2022/11/24 01:47:29;;;;;;;21.52;18.33;;;;;;;2.45;100.00;95717.03;5071887;28;20020;-69
2022/11/24 01:49:58;;;;;;;24.88;19.27;;;;;;;2.44;100.00;95721.38;5085869;28;20044;-69
2022/11/24 01:52:35;;;;;;;28.15;20.80;;;;;;;2.40;100.00;95720.69;5077585;28;20103;-61
2022/11/24 01:55:06;;;;;;;25.05;19.58;;;;;;;2.29;100.00;95729.13;5076872;28;20052;-61
2022/11/24 01:57:39;;;;;;;35.25;25.98;;;;;;;2.22;100.00;95729.59;5077695;28;20089;-66
2022/11/24 02:00:08;;;;;;;31.80;23.25;;;;;;;2.19;100.00;95728.00;5090718;28;20024;-66
2022/11/24 02:02:34;;;;;;;19.35;14.02;;;;;;;2.25;100.00;95732.84;5089867;28;20058;-66
2022/11/24 02:05:04;;;;;;;19.92;13.82;;;;;;;2.45;100.00;95730.00;5090299;28;20059;-66
2022/11/24 02:07:31;;;;;;;78.43;16.65;;;;;;;2.61;100.00;95733.34;5084700;28;20035;-66
2022/11/24 02:10:01;;;;;;;46.47;17.17;;;;;;;2.75;100.00;95724.72;5070683;28;20067;-66
2022/11/24 02:12:27;;;;;;;106.22;18.70;;;;;;;2.92;100.00;95726.31;5088092;28;20528;-66
2022/11/24 02:14:54;;;;;;;81.05;21.45;;;;;;;3.05;100.00;95726.38;5083173;28;20024;-67
2022/11/24 02:17:20;;;;;;;72.00;19.48;;;;;;;3.05;100.00;95734.19;5083424;28;20088;-67
2022/11/24 02:19:57;;;;;;;121.18;21.95;;;;;;;3.07;100.00;95734.94;5082074;28;20028;-67
2022/11/24 02:22:32;;;;;;;94.35;18.48;;;;;;;3.13;100.00;95744.13;5072158;28;20070;-67
2022/11/24 02:24:58;;;;;;;98.32;19.88;;;;;;;3.09;100.00;95742.63;5074086;28;20038;-66
2022/11/24 02:27:23;;;;;;;81.63;19.00;;;;;;;3.04;100.00;95745.53;5072216;28;20028;-67
2022/11/24 02:29:49;;;;;;;67.28;18.02;;;;;;;3.08;100.00;95748.75;5074184;28;20105;-66
2022/11/24 02:32:15;;;;;;;46.38;18.88;;;;;;;3.08;100.00;95752.19;5079563;28;20158;-67
2022/11/24 02:34:40;;;;;;;39.58;17.95;;;;;;;3.08;100.00;95760.00;5075484;28;20410;-59
2022/11/24 02:37:06;;;;;;;49.92;16.25;;;;;;;3.11;100.00;95765.03;5070174;28;20025;-59
2022/11/24 02:39:31;;;;;;;32.47;16.70;;;;;;;3.11;100.00;95778.03;5083453;28;20686;-59
2022/11/24 02:42:01;;;;;;;38.97;19.17;;;;;;;3.12;100.00;95778.88;5089693;28;20028;-59
2022/11/24 02:44:31;;;;;;;32.88;19.48;;;;;;;3.15;100.00;95787.31;5089052;28;20054;-59
2022/11/24 02:47:11;;;;;;;85.78;18.77;;;;;;;3.11;100.00;95779.81;5088011;28;20099;-59
2022/11/24 02:49:37;;;;;;;59.97;20.15;;;;;;;3.08;100.00;95783.41;5061826;28;20508;-69
2022/11/24 02:52:03;;;;;;;60.75;20.90;;;;;;;3.08;100.00;95788.63;5088360;28;20051;-64
2022/11/24 02:54:29;;;;;;;46.75;20.40;;;;;;;3.10;100.00;95786.75;5083319;28;20027;-61
2022/11/24 02:56:54;;;;;;;51.67;17.58;;;;;;;3.11;100.00;95785.00;5081618;28;20027;-61
2022/11/24 02:59:20;;;;;;;22.08;16.83;;;;;;;3.08;100.00;95787.78;5082952;28;20032;-61
2022/11/24 03:01:45;;;;;;;57.50;16.23;;;;;;;3.05;100.00;95778.41;5080732;28;20023;-61
2022/11/24 03:04:11;;;;;;;43.20;16.25;;;;;;;3.00;100.00;95781.28;5087455;28;20129;-61
2022/11/24 03:06:37;;;;;;;26.92;17.65;;;;;;;2.99;100.00;95786.59;5098114;28;20020;-61
2022/11/24 03:09:03;;;;;;;60.50;15.35;;;;;;;2.93;100.00;95782.59;5082507;28;20866;-62
2022/11/24 03:11:28;;;;;;;21.67;14.52;;;;;;;2.89;100.00;95777.66;5082365;28;20508;-63
2022/11/24 03:13:54;;;;;;;38.90;15.10;;;;;;;2.88;100.00;95786.38;5077939;28;20028;-61
2022/11/24 03:16:19;;;;;;;33.70;13.88;;;;;;;2.83;100.00;95784.91;5071446;28;20029;-61
2022/11/24 03:18:47;;;;;;;26.00;14.70;;;;;;;2.83;100.00;95790.09;5079319;28;20024;-60
2022/11/24 03:21:12;;;;;;;56.65;13.60;;;;;;;3.00;100.00;95807.28;5083748;28;20047;-61
2022/11/24 03:23:38;;;;;;;31.55;11.98;;;;;;;2.97;100.00;95804.88;5099340;28;20128;-61
2022/11/24 03:26:08;;;;;;;20.52;12.98;;;;;;;2.88;100.00;95820.19;5083135;28;20485;-61
2022/11/24 03:28:33;;;;;;;18.25;13.02;;;;;;;2.67;100.00;95820.53;5088347;28;20586;-64
2022/11/24 03:30:59;;;;;;;24.00;12.88;;;;;;;2.53;100.00;95816.97;5083531;28;20110;-65
2022/11/24 03:33:24;;;;;;;35.25;16.60;;;;;;;2.40;100.00;95819.44;5084113;28;20040;-61
2022/11/24 03:35:50;;;;;;;57.47;20.83;;;;;;;2.32;100.00;95826.00;5079553;28;20417;-61
2022/11/24 03:38:15;;;;;;;59.22;28.00;;;;;;;2.26;100.00;95830.63;5087430;28;20103;-61
2022/11/24 03:40:40;;;;;;;51.22;24.65;;;;;;;2.15;100.00;95836.44;5071230;28;20048;-61
2022/11/24 03:43:06;;;;;;;46.75;22.98;;;;;;;2.07;100.00;95837.78;5080165;28;20021;-61
2022/11/24 03:45:31;;;;;;;39.88;20.08;;;;;;;2.00;100.00;95834.72;5078668;28;20486;-61
2022/11/24 03:47:56;;;;;;;35.63;18.80;;;;;;;1.90;100.00;95831.81;5083997;28;20087;-63
2022/11/24 03:50:22;;;;;;;36.13;19.23;;;;;;;1.83;100.00;95830.44;5081639;28;20477;-69
2022/11/24 03:52:47;;;;;;;40.78;19.88;;;;;;;1.75;100.00;95828.28;5083581;28;20043;-67
2022/11/24 03:55:12;;;;;;;49.90;21.52;;;;;;;1.69;100.00;95828.63;5082500;28;20046;-66
2022/11/24 03:57:38;;;;;;;62.08;22.23;;;;;;;1.59;100.00;95825.69;5087585;28;20032;-67
2022/11/24 04:00:05;;;;;;;44.67;23.92;;;;;;;1.54;100.00;95830.28;5088488;28;20027;-67
2022/11/24 04:02:31;;;;;;;44.75;22.27;;;;;;;1.53;100.00;95834.63;5087762;28;20028;-67
2022/11/24 04:04:56;;;;;;;45.72;21.75;;;;;;;1.51;100.00;95840.84;5084320;28;20027;-67
2022/11/24 04:07:21;;;;;;;27.73;19.05;;;;;;;1.53;100.00;95846.78;5087840;28;20035;-66
2022/11/24 04:09:47;;;;;;;31.15;17.88;;;;;;;1.58;100.00;95855.16;5084556;28;20055;-61
2022/11/24 04:14:56;;;;;;;42.20;19.95;;;;;;;1.49;100.00;95861.66;5086300;28;20035;-61
2022/11/24 04:17:21;;;;;;;39.45;20.58;;;;;;;1.37;100.00;95860.56;5084487;28;20398;-61
2022/11/24 04:19:46;;;;;;;40.33;19.42;;;;;;;1.31;100.00;95868.69;5085095;28;20094;-61
2022/11/24 04:22:12;;;;;;;36.38;20.13;;;;;;;1.18;100.00;95858.13;5072653;28;20028;-61
2022/11/24 04:24:37;;;;;;;38.13;19.73;;;;;;;1.17;100.00;95863.38;5085777;28;20027;-61
2022/11/24 04:27:02;;;;;;;30.30;17.98;;;;;;;1.15;100.00;95858.28;5072604;28;20095;-59
2022/11/24 04:29:28;;;;;;;50.33;17.98;;;;;;;1.08;100.00;95860.34;5074114;28;20028;-68
2022/11/24 04:31:53;;;;;;;57.60;19.63;;;;;;;1.13;100.00;95853.16;5078637;28;20020;-68
2022/11/24 04:34:18;;;;;;;43.20;16.05;;;;;;;1.06;100.00;95846.63;5080714;28;20559;-67
2022/11/24 04:36:44;;;;;;;30.73;17.80;;;;;;;1.04;100.00;95838.09;5085225;28;20027;-68
2022/11/24 04:39:10;;;;;;;35.25;18.45;;;;;;;1.02;100.00;95828.69;5076942;28;20065;-68
2022/11/24 04:41:35;;;;;;;27.90;16.63;;;;;;;1.07;100.00;95826.69;5092036;28;20028;-68
2022/11/24 04:44:01;;;;;;;18.38;13.13;;;;;;;1.05;100.00;95824.22;5091543;28;20028;-68
2022/11/24 04:46:26;;;;;;;31.75;11.15;;;;;;;1.12;100.00;95840.28;5092137;28;20031;-67
2022/11/24 04:48:51;;;;;;;23.02;11.52;;;;;;;1.12;100.00;95846.28;5091764;28;20082;-59
2022/11/24 04:51:17;;;;;;;28.60;12.85;;;;;;;1.09;100.00;95843.88;5091777;28;20027;-60
2022/11/24 04:53:42;;;;;;;19.73;11.40;;;;;;;1.09;100.00;95846.47;5090815;28;20031;-59
2022/11/24 04:56:08;;;;;;;34.05;13.68;;;;;;;1.09;100.00;95849.06;5091389;28;20115;-59
2022/11/24 04:58:33;;;;;;;53.95;16.35;;;;;;;1.11;100.00;95855.00;5090427;28;20089;-59
2022/11/24 05:00:59;;;;;;;53.13;13.00;;;;;;;1.02;100.00;95859.81;5091285;28;20547;-59
2022/11/24 05:03:24;;;;;;;25.23;10.68;;;;;;;0.91;100.00;95869.00;5092185;28;20016;-59
2022/11/24 05:05:49;;;;;;;12.88;10.45;;;;;;;0.84;100.00;95863.28;5095249;28;20468;-59
2022/11/24 05:08:14;;;;;;;10.10;8.60;;;;;;;0.79;100.00;95870.47;5088966;28;20024;-61
2022/11/24 05:10:40;;;;;;;18.10;9.93;;;;;;;0.79;100.00;95867.88;5090834;28;20020;-61
2022/11/24 05:13:09;;;;;;;22.05;9.63;;;;;;;0.63;100.00;95854.00;5090274;28;20024;-61
2022/11/24 05:15:37;;;;;;;15.00;8.13;;;;;;;0.58;100.00;95851.63;5088775;28;20097;-61
2022/11/24 05:18:04;;;;;;;22.52;9.90;;;;;;;0.50;100.00;95848.59;5086366;28;20055;-62
2022/11/24 05:20:30;;;;;;;13.73;11.00;;;;;;;0.46;100.00;95849.66;5082456;28;20501;-61
2022/11/24 05:23:00;;;;;;;20.60;13.30;;;;;;;0.46;100.00;95854.84;5084169;28;20024;-61
2022/11/24 05:25:25;;;;;;;128.23;39.75;;;;;;;0.45;100.00;95851.41;5079863;28;20073;-64
2022/11/24 05:27:51;;;;;;;72.75;38.08;;;;;;;0.53;100.00;95846.66;5085868;28;20487;-62
2022/11/24 05:30:16;;;;;;;79.63;36.75;;;;;;;0.56;100.00;95854.31;5102823;28;20026;-61
2022/11/24 05:32:42;;;;;;;100.50;35.80;;;;;;;0.57;100.00;95847.38;5084423;28;20065;-61
2022/11/24 05:35:08;;;;;;;98.93;40.67;;;;;;;0.50;100.00;95849.41;5090825;28;20394;-61
2022/11/24 05:37:34;;;;;;;72.85;28.30;;;;;;;0.46;100.00;95852.25;5088339;28;20052;-61
2022/11/24 05:39:59;;;;;;;70.40;23.27;;;;;;;0.55;100.00;95849.19;5090789;28;20050;-61
2022/11/24 05:42:39;;;;;;;64.53;19.10;;;;;;;0.72;100.00;95856.13;5086833;28;20056;-61
2022/11/24 05:45:10;;;;;;;38.80;17.65;;;;;;;0.81;100.00;95854.81;5076933;28;20066;-59
2022/11/24 05:47:36;;;;;;;49.50;13.30;;;;;;;0.83;100.00;95853.84;5076964;28;20404;-61
2022/11/24 05:50:02;;;;;;;20.05;12.70;;;;;;;0.80;100.00;95871.28;5076995;28;20024;-61
2022/11/24 05:52:27;;;;;;;26.38;10.90;;;;;;;0.79;100.00;95870.47;5064161;28;20020;-63
2022/11/24 05:54:53;;;;;;;33.00;15.48;;;;;;;0.81;100.00;95862.59;5094308;28;20019;-61
2022/11/24 05:57:18;;;;;;;38.55;14.38;;;;;;;0.75;100.00;95870.69;5086637;28;20520;-61
2022/11/24 05:59:44;;;;;;;49.78;34.28;;;;;;;0.73;100.00;95869.94;5077085;28;20528;-61
2022/11/24 06:02:09;;;;;;;35.83;20.42;;;;;;;0.80;100.00;95876.47;5082541;28;20024;-67
2022/11/24 06:04:35;;;;;;;58.40;16.40;;;;;;;0.81;100.00;95879.00;5076293;28;20022;-61
2022/11/24 06:07:02;;;;;;;35.58;24.08;;;;;;;0.85;100.00;95895.22;5064444;28;20028;-67
2022/11/24 06:09:28;;;;;;;24.63;11.85;;;;;;;0.93;100.00;95897.41;5083302;28;20032;-67
2022/11/24 06:11:53;;;;;;;30.13;10.88;;;;;;;0.96;100.00;95892.06;5070400;28;20037;-67
2022/11/24 06:14:19;;;;;;;80.43;10.07;;;;;;;0.96;100.00;95892.06;5070231;28;20482;-67
2022/11/24 06:16:44;;;;;;;86.78;15.15;;;;;;;0.91;100.00;95883.69;5086298;28;20026;-67
2022/11/24 06:19:10;;;;;;;49.35;10.65;;;;;;;0.85;100.00;95888.28;5087069;28;20096;-67
2022/11/24 06:21:35;;;;;;;83.45;11.68;;;;;;;0.77;100.00;95882.63;5087389;28;20032;-61
2022/11/24 06:24:01;;;;;;;17.35;10.75;;;;;;;0.75;100.00;95889.66;5082948;28;20087;-67
2022/11/24 06:26:27;;;;;;;16.88;11.38;;;;;;;0.75;100.00;95881.06;5089900;28;20023;-69
2022/11/24 06:28:52;;;;;;;27.83;9.00;;;;;;;0.77;100.00;95876.63;5089195;28;20557;-69
2022/11/24 06:31:18;;;;;;;31.80;9.02;;;;;;;0.77;100.00;95874.84;5089626;28;20374;-69
2022/11/24 06:33:43;;;;;;;33.95;8.73;;;;;;;0.71;100.00;95873.44;5089250;28;20044;-69
2022/11/24 06:36:11;;;;;;;42.92;9.50;;;;;;;0.69;100.00;95870.09;5070013;28;20036;-69
2022/11/24 06:38:37;;;;;;;38.17;9.80;;;;;;;0.67;100.00;95873.66;5079018;28;20034;-69
2022/11/24 06:41:08;;;;;;;29.80;8.68;;;;;;;0.64;100.00;95879.00;5089827;28;20400;-69
2022/11/24 06:43:35;;;;;;;34.45;9.63;;;;;;;0.60;100.00;95883.47;5090574;28;20057;-62
2022/11/24 06:46:01;;;;;;;59.88;9.88;;;;;;;0.57;100.00;95881.03;5087681;28;20028;-66
2022/11/24 06:48:27;;;;;;;20.80;9.95;;;;;;;0.48;100.00;95882.34;5078027;28;20039;-67
2022/11/24 06:50:57;;;;;;;29.35;13.55;;;;;;;0.52;100.00;95883.03;5082576;28;20035;-66
2022/11/24 06:53:22;;;;;;;29.55;13.73;;;;;;;0.50;100.00;95884.88;5088876;28;20060;-66
2022/11/24 06:55:48;;;;;;;70.25;12.15;;;;;;;0.40;100.00;95889.66;5078694;28;20469;-67
2022/11/24 06:58:14;;;;;;;36.35;13.75;;;;;;;0.37;100.00;95889.81;5075135;28;20039;-68
2022/11/24 07:00:39;;;;;;;34.20;22.48;;;;;;;0.39;100.00;95877.63;5076696;28;20016;-61
2022/11/24 07:03:04;;;;;;;35.53;21.30;;;;;;;0.40;100.00;95880.13;5074403;28;20082;-65
2022/11/24 07:05:30;;;;;;;43.88;25.50;;;;;;;0.42;100.00;95877.47;5083110;28;20031;-65
2022/11/24 07:07:58;;;;;;;60.50;32.38;;;;;;;0.40;100.00;95877.53;5081412;28;20020;-63
2022/11/24 07:10:23;;;;;;;134.95;48.75;;;;;;;0.48;100.00;95869.38;5093596;28;20356;-62
2022/11/24 07:12:48;;;;;;;277.20;46.85;;;;;;;0.47;100.00;95878.06;5091516;28;20026;-64
2022/11/24 07:15:14;;;;;;;179.02;40.55;;;;;;;0.40;100.00;95887.88;5081825;28;20066;-65
2022/11/24 07:17:39;;;;;;;44.08;22.55;;;;;;;0.28;100.00;95894.50;5080868;28;20036;-66
2022/11/24 07:20:07;;;;;;;46.83;21.23;;;;;;;0.22;100.00;95891.34;5088868;28;20462;-63
2022/11/24 07:22:32;;;;;;;44.10;28.02;;;;;;;0.20;100.00;95888.00;5081545;28;20111;-68
2022/11/24 07:24:58;;;;;;;46.03;29.25;;;;;;;0.21;100.00;95881.91;5080063;28;20111;-65
2022/11/24 07:27:23;;;;;;;54.20;29.33;;;;;;;0.26;100.00;95891.16;5077860;28;20324;-64
2022/11/24 07:29:49;;;;;;;78.82;37.55;;;;;;;0.31;100.00;95887.50;5087465;28;20128;-65
2022/11/24 07:32:14;;;;;;;85.63;36.95;;;;;;;0.35;100.00;95894.22;5087042;28;20051;-65
2022/11/24 07:34:40;;;;;;;86.18;37.42;;;;;;;0.28;100.00;95898.84;5096837;28;20541;-65
2022/11/24 07:37:05;;;;;;;90.63;34.08;;;;;;;0.24;100.00;95905.94;5091300;28;20518;-66
2022/11/24 07:39:30;;;;;;;74.97;35.47;;;;;;;0.25;100.00;95893.84;5084414;28;20016;-67
2022/11/24 07:41:58;;;;;;;128.88;45.17;;;;;;;0.21;100.00;95892.28;5093239;28;20020;-61
2022/11/24 07:44:23;;;;;;;81.65;40.00;;;;;;;0.21;100.00;95903.50;5092724;28;20055;-68
2022/11/24 07:46:50;;;;;;;73.35;35.13;;;;;;;0.25;100.00;95905.00;5092860;28;20193;-68
2022/11/24 07:49:16;;;;;;;82.00;38.55;;;;;;;0.23;100.00;95906.84;5093141;28;20454;-68
2022/11/24 07:51:41;;;;;;;105.47;41.13;;;;;;;0.26;100.00;95908.47;5092739;28;20150;-67
2022/11/24 07:54:06;;;;;;;91.78;40.65;;;;;;;0.28;100.00;95909.22;5093093;28;20107;-68
2022/11/24 07:56:32;;;;;;;118.93;38.47;;;;;;;0.25;100.00;95912.78;5092709;28;20506;-67
2022/11/24 07:58:57;;;;;;;82.70;31.95;;;;;;;0.24;100.00;95920.66;5096377;28;20019;-67
2022/11/24 08:01:22;;;;;;;78.05;33.28;;;;;;;0.21;100.00;95915.59;5099666;28;20085;-68
2022/11/24 08:03:48;;;;;;;106.13;37.53;;;;;;;0.21;100.00;95916.44;5073022;28;20021;-68
2022/11/24 08:06:14;;;;;;;104.80;30.98;;;;;;;0.18;100.00;95926.09;5085780;28;20040;-68
2022/11/24 08:08:39;;;;;;;52.28;28.85;;;;;;;0.19;100.00;95928.63;5084846;28;20032;-68
2022/11/24 08:11:07;;;;;;;65.90;28.75;;;;;;;0.19;100.00;95927.75;5090654;28;20020;-67
2022/11/24 08:13:33;;;;;;;71.38;32.08;;;;;;;0.22;100.00;95922.44;5084558;28;20537;-67
2022/11/24 08:16:04;;;;;;;77.22;40.08;;;;;;;0.23;100.00;95930.16;5087597;28;20032;-67
2022/11/24 08:18:29;;;;;;;91.65;40.88;;;;;;;0.24;100.00;95937.00;5086797;28;20035;-63
2022/11/24 08:20:57;;;;;;;97.78;32.47;;;;;;;0.18;100.00;95932.13;5088227;28;20389;-69
2022/11/24 08:23:22;;;;;;;62.75;30.67;;;;;;;0.18;100.00;95931.28;5088205;28;20035;-68
2022/11/24 08:25:48;;;;;;;81.32;31.85;;;;;;;0.16;100.00;95938.28;5086399;28;20020;-69
2022/11/24 08:28:13;;;;;;;79.07;45.05;;;;;;;0.09;100.00;95941.16;5092105;28;20028;-68
2022/11/24 08:30:38;;;;;;;92.10;54.92;;;;;;;0.16;100.00;95936.53;5078953;28;20409;-67
2022/11/24 08:33:04;;;;;;;90.93;63.47;;;;;;;0.21;100.00;95939.75;5091944;28;20131;-68
2022/11/24 08:35:29;;;;;;;87.75;52.90;;;;;;;0.24;100.00;95949.13;5092179;28;20553;-68
2022/11/24 08:37:55;;;;;;;64.35;46.22;;;;;;;0.26;100.00;95952.47;5090607;28;20058;-69
2022/11/24 08:40:20;;;;;;;67.72;44.15;;;;;;;0.30;100.00;95950.56;5083706;28;20016;-62
2022/11/24 08:42:45;;;;;;;60.42;42.80;;;;;;;0.32;100.00;95956.50;5084740;28;20501;-62
2022/11/24 08:45:11;;;;;;;64.47;44.95;;;;;;;0.36;100.00;95961.47;5084845;28;20012;-62
2022/11/24 08:47:37;;;;;;;69.95;45.83;;;;;;;0.41;100.00;95948.31;5090385;28;20024;-61
2022/11/24 08:50:04;;;;;;;71.20;47.72;;;;;;;0.47;100.00;95958.38;5084756;28;20024;-62
2022/11/24 08:52:30;;;;;;;67.95;52.08;;;;;;;0.50;100.00;95953.06;5084905;28;20016;-62
2022/11/24 08:54:55;;;;;;;63.35;43.72;;;;;;;0.49;100.00;95946.19;5091187;28;20034;-62
2022/11/24 08:57:20;;;;;;;51.33;39.25;;;;;;;0.51;100.00;95948.72;5085205;28;20119;-67
2022/11/24 08:59:46;;;;;;;46.17;36.40;;;;;;;0.54;100.00;95944.22;5081212;28;20028;-61
2022/11/24 09:02:12;;;;;;;49.03;35.95;;;;;;;0.62;100.00;95955.97;5083571;28;20107;-61
2022/11/24 09:04:37;;;;;;;45.47;36.75;;;;;;;0.84;100.00;95955.75;5085270;28;20031;-61
2022/11/24 09:07:03;;;;;;;53.45;46.35;;;;;;;1.28;100.00;95949.25;5084365;28;20066;-62
2022/11/24 09:09:28;;;;;;;79.78;60.53;;;;;;;1.59;100.00;95947.66;5071012;28;20028;-61
2022/11/24 09:11:54;;;;;;;99.85;78.38;;;;;;;1.86;100.00;95945.38;5071419;28;20081;-61
2022/11/24 09:14:19;;;;;;;105.32;85.50;;;;;;;2.18;100.00;95951.50;5087440;28;20027;-61
2022/11/24 09:16:44;;;;;;;96.25;85.15;;;;;;;2.51;100.00;95946.19;5091745;28;20493;-62
2022/11/24 09:19:10;;;;;;;169.38;146.93;;;;;;;2.81;100.00;95950.59;5077582;28;20020;-69
2022/11/24 09:21:39;;;;;;;177.27;157.70;;;;;;;3.06;100.00;95948.31;5071331;28;20019;-69
2022/11/24 09:24:06;;;;;;;171.10;132.20;;;;;;;3.25;100.00;95945.50;5071332;28;20032;-69
2022/11/24 09:26:34;;;;;;;98.50;86.55;;;;;;;3.29;100.00;95942.59;5071244;28;20020;-69
2022/11/24 09:29:02;;;;;;;90.70;81.15;;;;;;;3.44;100.00;95934.81;5071698;28;20608;-69
2022/11/24 09:31:33;;;;;;;87.68;79.18;;;;;;;3.65;100.00;95932.69;5072498;28;20107;-69
2022/11/24 09:33:59;;;;;;;67.85;61.10;;;;;;;3.85;100.00;95936.69;5090943;28;20524;-59
2022/11/24 09:36:25;;;;;;;41.38;36.97;;;;;;;3.97;100.00;95935.09;5088084;28;20031;-69
2022/11/24 09:38:51;;;;;;;92.43;32.92;;;;;;;4.18;100.00;95932.06;5089817;28;20023;-69
2022/11/24 09:41:16;;;;;;;22.52;20.25;;;;;;;4.28;100.00;95920.13;5084221;28;20025;-69
2022/11/24 09:43:49;;;;;;;17.67;14.90;;;;;;;4.39;100.00;95922.03;5072680;28;20036;-69
2022/11/24 09:46:22;;;;;;;12.18;9.82;;;;;;;4.46;100.00;95932.09;5081794;28;20099;-69
2022/11/24 09:48:52;;;;;;;16.85;12.85;;;;;;;4.50;100.00;95933.56;5071154;28;20153;-70
2022/11/24 09:51:23;;;;;;;23.63;21.38;;;;;;;4.72;100.00;95941.69;5071073;28;20029;-69
2022/11/24 09:54:05;;;;;;;18.08;16.27;;;;;;;4.72;100.00;95939.06;5079419;28;20025;-69
2022/11/24 09:56:33;;;;;;;20.70;16.08;;;;;;;4.63;100.00;95946.66;5085789;28;20933;-69
2022/11/24 09:59:09;;;;;;;14.40;12.25;;;;;;;4.68;100.00;95940.22;5080491;28;20034;-62
2022/11/24 10:01:39;;;;;;;11.60;9.32;;;;;;;4.78;100.00;95937.84;5081246;28;20496;-62
2022/11/24 10:04:19;;;;;;;10.82;7.68;;;;;;;4.98;100.00;95948.75;5085088;28;20039;-62
2022/11/24 10:07:00;;;;;;;12.48;7.43;;;;;;;5.18;100.00;95938.72;5084804;28;20386;-62
2022/11/24 10:09:47;;;;;;;9.27;4.82;;;;;;;5.26;100.00;95934.66;5086009;28;20410;-62
2022/11/24 10:12:36;;;;;;;10.93;6.85;;;;;;;5.42;100.00;95936.25;5079415;28;20093;-61
2022/11/24 10:15:39;;;;;;;5.55;4.78;;;;;;;5.65;100.00;95939.91;5084674;28;20111;-63
2022/11/24 10:18:30;;;;;;;13.18;9.43;;;;;;;5.72;100.00;95946.38;5084158;28;20028;-59
2022/11/24 10:21:18;;;;;;;8.13;5.28;;;;;;;5.77;100.00;95943.47;5074677;28;20036;-59
2022/11/24 10:24:26;;;;;;;8.32;3.17;;;;;;;5.91;100.00;95933.81;5088820;28;20077;-59
2022/11/24 10:27:02;;;;;;;7.60;4.43;;;;;;;6.04;100.00;95936.44;5079881;28;20030;-60
2022/11/24 10:29:42;;;;;;;5.95;3.17;;;;;;;6.27;100.00;95938.25;5085234;28;20031;-59
2022/11/24 10:32:17;;;;;;;7.78;3.60;;;;;;;6.45;100.00;95935.28;5086756;28;20048;-62
2022/11/24 10:34:44;;;;;;;5.70;3.63;;;;;;;6.53;100.00;95943.41;5089506;28;20020;-69
2022/11/24 10:37:10;;;;;;;5.47;2.90;;;;;;;6.71;100.00;95940.41;5089772;28;20489;-62
2022/11/24 10:40:13;;;;;;;4.95;2.40;;;;;;;6.74;100.00;95934.94;5089271;28;20031;-62
2022/11/24 10:42:39;;;;;;;5.45;3.08;;;;;;;6.94;100.00;95943.09;5076206;28;20512;-62
2022/11/24 10:45:13;;;;;;;9.02;4.65;;;;;;;7.03;100.00;95948.50;5090029;28;20024;-62
2022/11/24 10:47:39;;;;;;;5.88;3.53;;;;;;;7.12;100.00;95944.38;5077223;28;20039;-62
2022/11/24 10:50:19;;;;;;;3.22;2.42;;;;;;;7.16;100.00;95940.56;5088833;28;20032;-62
2022/11/24 10:53:21;;;;;;;4.47;1.98;;;;;;;7.19;100.00;95936.06;5089665;28;20112;-69
2022/11/24 10:55:55;;;;;;;2.47;2.00;;;;;;;7.28;100.00;95933.56;5084080;28;20032;-59
2022/11/24 10:58:29;;;;;;;4.57;2.83;;;;;;;7.48;100.00;95936.47;5089441;28;20020;-59
2022/11/24 11:01:00;;;;;;;5.90;2.85;;;;;;;7.69;100.00;95941.03;5089692;28;20050;-60
2022/11/24 11:03:30;;;;;;;4.13;2.60;;;;;;;7.72;100.00;95936.38;5088663;28;20031;-60
2022/11/24 11:06:09;;;;;;;5.07;2.67;;;;;;;7.81;96.48;95934.00;5088733;28;20070;-60
2022/11/24 11:08:34;;;;;;;6.13;3.15;;;;;;;7.94;95.91;95929.47;5089737;28;20026;-60
2022/11/24 11:11:25;;;;;;;5.32;4.00;;;;;;;7.84;95.39;95918.03;5071041;28;20095;-65
2022/11/24 11:13:54;;;;;;;7.22;3.70;;;;;;;8.14;98.04;95916.59;5089766;28;20035;-59
2022/11/24 11:16:34;;;;;;;5.78;3.88;;;;;;;8.18;96.95;95915.38;5089451;28;20070;-63
2022/11/24 11:19:02;;;;;;;6.55;3.22;;;;;;;8.12;93.25;95911.47;5089748;28;20028;-63
2022/11/24 11:21:31;;;;;;;5.28;2.65;;;;;;;8.02;94.10;95905.28;5088850;28;20020;-64
2022/11/24 11:23:58;;;;;;;6.80;3.88;;;;;;;8.20;92.89;95899.53;5089200;28;20077;-65
2022/11/24 11:26:23;;;;;;;3.60;3.17;;;;;;;8.20;92.32;95894.31;5089414;28;20024;-63